sensor_id;sensor_type;location;lat;lon;timestamp;temperature;humidity
60287;DHT22;46141;52.382;5.270;2023-05-21T00:01:00;21.90;63.80
60287;DHT22;46141;52.382;5.270;2023-05-21T00:03:26;21.80;63.90
60287;DHT22;46141;52.382;5.270;2023-05-21T00:05:53;21.80;64.10
60287;DHT22;46141;52.382;5.270;2023-05-21T00:08:20;21.80;64.10
60287;DHT22;46141;52.382;5.270;2023-05-21T00:10:45;21.80;64.20
60287;DHT22;46141;52.382;5.270;2023-05-21T00:13:11;21.80;64.20
60287;DHT22;46141;52.382;5.270;2023-05-21T00:15:37;21.80;64.20
60287;DHT22;46141;52.382;5.270;2023-05-21T00:18:03;21.80;64.20
60287;DHT22;46141;52.382;5.270;2023-05-21T00:20:28;21.80;64.20
60287;DHT22;46141;52.382;5.270;2023-05-21T00:22:57;21.70;64.20
60287;DHT22;46141;52.382;5.270;2023-05-21T00:25:22;21.80;64.20
60287;DHT22;46141;52.382;5.270;2023-05-21T00:27:48;21.80;64.30
60287;DHT22;46141;52.382;5.270;2023-05-21T00:30:14;21.80;64.20
60287;DHT22;46141;52.382;5.270;2023-05-21T00:32:40;21.70;64.20
60287;DHT22;46141;52.382;5.270;2023-05-21T00:35:06;21.70;64.30
60287;DHT22;46141;52.382;5.270;2023-05-21T00:37:32;21.70;64.30
60287;DHT22;46141;52.382;5.270;2023-05-21T00:39:59;21.70;64.40
60287;DHT22;46141;52.382;5.270;2023-05-21T00:42:26;21.70;64.40
60287;DHT22;46141;52.382;5.270;2023-05-21T00:44:55;21.70;64.40
60287;DHT22;46141;52.382;5.270;2023-05-21T00:47:21;21.70;64.50
60287;DHT22;46141;52.382;5.270;2023-05-21T00:49:48;21.70;64.50
60287;DHT22;46141;52.382;5.270;2023-05-21T00:52:15;21.70;64.60
60287;DHT22;46141;52.382;5.270;2023-05-21T00:54:45;21.70;64.60
60287;DHT22;46141;52.382;5.270;2023-05-21T00:57:12;21.70;64.60
60287;DHT22;46141;52.382;5.270;2023-05-21T00:59:38;21.60;64.50
60287;DHT22;46141;52.382;5.270;2023-05-21T01:02:05;21.70;64.60
60287;DHT22;46141;52.382;5.270;2023-05-21T01:04:31;21.60;64.60
60287;DHT22;46141;52.382;5.270;2023-05-21T01:06:57;21.60;64.60
60287;DHT22;46141;52.382;5.270;2023-05-21T01:09:24;21.60;64.70
60287;DHT22;46141;52.382;5.270;2023-05-21T01:11:51;21.60;64.70
60287;DHT22;46141;52.382;5.270;2023-05-21T01:14:19;21.60;64.70
60287;DHT22;46141;52.382;5.270;2023-05-21T01:16:47;21.60;64.70
60287;DHT22;46141;52.382;5.270;2023-05-21T01:19:20;21.60;64.80
60287;DHT22;46141;52.382;5.270;2023-05-21T01:21:50;21.60;64.80
60287;DHT22;46141;52.382;5.270;2023-05-21T01:24:17;21.60;64.80
60287;DHT22;46141;52.382;5.270;2023-05-21T01:26:43;21.60;64.80
60287;DHT22;46141;52.382;5.270;2023-05-21T01:29:11;21.60;64.90
60287;DHT22;46141;52.382;5.270;2023-05-21T01:34:31;21.60;64.90
60287;DHT22;46141;52.382;5.270;2023-05-21T01:37:25;21.50;65.00
60287;DHT22;46141;52.382;5.270;2023-05-21T01:39:55;21.60;65.00
60287;DHT22;46141;52.382;5.270;2023-05-21T01:42:24;21.50;65.00
60287;DHT22;46141;52.382;5.270;2023-05-21T01:44:54;21.60;65.00
60287;DHT22;46141;52.382;5.270;2023-05-21T01:47:23;21.50;65.10
60287;DHT22;46141;52.382;5.270;2023-05-21T01:49:50;21.50;65.10
60287;DHT22;46141;52.382;5.270;2023-05-21T01:52:17;21.50;65.10
60287;DHT22;46141;52.382;5.270;2023-05-21T01:54:42;21.50;65.20
60287;DHT22;46141;52.382;5.270;2023-05-21T01:57:08;21.50;65.90
60287;DHT22;46141;52.382;5.270;2023-05-21T01:59:35;21.50;65.30
60287;DHT22;46141;52.382;5.270;2023-05-21T02:02:00;21.50;65.40
60287;DHT22;46141;52.382;5.270;2023-05-21T02:04:26;21.50;65.50
60287;DHT22;46141;52.382;5.270;2023-05-21T02:06:52;21.50;65.50
60287;DHT22;46141;52.382;5.270;2023-05-21T02:09:19;21.40;65.50
60287;DHT22;46141;52.382;5.270;2023-05-21T02:11:45;21.40;65.50
60287;DHT22;46141;52.382;5.270;2023-05-21T02:14:10;21.50;65.60
60287;DHT22;46141;52.382;5.270;2023-05-21T02:16:39;21.40;65.50
60287;DHT22;46141;52.382;5.270;2023-05-21T02:19:04;21.40;65.50
60287;DHT22;46141;52.382;5.270;2023-05-21T02:21:31;21.40;65.50
60287;DHT22;46141;52.382;5.270;2023-05-21T02:23:56;21.40;65.50
60287;DHT22;46141;52.382;5.270;2023-05-21T02:26:22;21.40;65.50
60287;DHT22;46141;52.382;5.270;2023-05-21T02:28:47;21.40;65.50
60287;DHT22;46141;52.382;5.270;2023-05-21T02:31:13;21.40;65.50
60287;DHT22;46141;52.382;5.270;2023-05-21T02:33:41;21.40;65.50
60287;DHT22;46141;52.382;5.270;2023-05-21T02:36:07;21.40;65.60
60287;DHT22;46141;52.382;5.270;2023-05-21T02:38:40;21.40;65.60
60287;DHT22;46141;52.382;5.270;2023-05-21T02:41:08;21.30;65.50
60287;DHT22;46141;52.382;5.270;2023-05-21T02:43:34;21.30;65.40
60287;DHT22;46141;52.382;5.270;2023-05-21T02:46:00;21.30;66.20
60287;DHT22;46141;52.382;5.270;2023-05-21T02:48:25;21.30;65.50
60287;DHT22;46141;52.382;5.270;2023-05-21T02:50:51;21.30;65.50
60287;DHT22;46141;52.382;5.270;2023-05-21T02:53:17;21.20;65.50
60287;DHT22;46141;52.382;5.270;2023-05-21T02:55:42;21.30;65.50
60287;DHT22;46141;52.382;5.270;2023-05-21T02:58:08;21.30;65.50
60287;DHT22;46141;52.382;5.270;2023-05-21T03:00:34;21.20;65.40
60287;DHT22;46141;52.382;5.270;2023-05-21T03:03:00;21.30;65.50
60287;DHT22;46141;52.382;5.270;2023-05-21T03:05:25;21.20;65.50
60287;DHT22;46141;52.382;5.270;2023-05-21T03:07:51;21.30;65.50
60287;DHT22;46141;52.382;5.270;2023-05-21T03:10:17;21.30;65.40
60287;DHT22;46141;52.382;5.270;2023-05-21T03:12:43;21.20;65.50
60287;DHT22;46141;52.382;5.270;2023-05-21T03:15:09;21.20;65.50
60287;DHT22;46141;52.382;5.270;2023-05-21T03:17:35;21.20;65.60
60287;DHT22;46141;52.382;5.270;2023-05-21T03:20:00;21.20;65.50
60287;DHT22;46141;52.382;5.270;2023-05-21T03:22:26;21.20;66.10
60287;DHT22;46141;52.382;5.270;2023-05-21T03:24:52;21.20;65.50
60287;DHT22;46141;52.382;5.270;2023-05-21T03:27:17;21.20;65.50
60287;DHT22;46141;52.382;5.270;2023-05-21T03:29:43;21.20;65.60
60287;DHT22;46141;52.382;5.270;2023-05-21T03:32:10;21.20;65.60
60287;DHT22;46141;52.382;5.270;2023-05-21T03:34:35;21.20;65.60
60287;DHT22;46141;52.382;5.270;2023-05-21T03:37:01;21.20;65.50
60287;DHT22;46141;52.382;5.270;2023-05-21T03:39:27;21.20;65.50
60287;DHT22;46141;52.382;5.270;2023-05-21T03:41:52;21.10;65.50
60287;DHT22;46141;52.382;5.270;2023-05-21T03:44:18;21.10;65.50
60287;DHT22;46141;52.382;5.270;2023-05-21T03:46:44;21.10;65.50
60287;DHT22;46141;52.382;5.270;2023-05-21T03:49:10;21.10;65.50
60287;DHT22;46141;52.382;5.270;2023-05-21T03:51:35;21.10;65.50
60287;DHT22;46141;52.382;5.270;2023-05-21T03:54:02;21.10;65.60
60287;DHT22;46141;52.382;5.270;2023-05-21T03:56:28;21.10;65.60
60287;DHT22;46141;52.382;5.270;2023-05-21T03:58:54;21.10;65.70
60287;DHT22;46141;52.382;5.270;2023-05-21T04:01:19;21.10;65.70
60287;DHT22;46141;52.382;5.270;2023-05-21T04:03:45;21.10;65.60
60287;DHT22;46141;52.382;5.270;2023-05-21T04:06:11;21.10;65.60
60287;DHT22;46141;52.382;5.270;2023-05-21T04:08:36;21.10;65.60
60287;DHT22;46141;52.382;5.270;2023-05-21T04:11:02;21.00;65.70
60287;DHT22;46141;52.382;5.270;2023-05-21T04:13:28;21.00;65.60
60287;DHT22;46141;52.382;5.270;2023-05-21T04:15:54;21.00;65.60
60287;DHT22;46141;52.382;5.270;2023-05-21T04:18:20;21.00;65.60
60287;DHT22;46141;52.382;5.270;2023-05-21T04:20:48;21.10;65.60
60287;DHT22;46141;52.382;5.270;2023-05-21T04:23:14;21.00;65.60
60287;DHT22;46141;52.382;5.270;2023-05-21T04:25:40;21.10;65.70
60287;DHT22;46141;52.382;5.270;2023-05-21T04:28:06;21.00;65.70
60287;DHT22;46141;52.382;5.270;2023-05-21T04:30:32;21.00;65.60
60287;DHT22;46141;52.382;5.270;2023-05-21T04:33:01;21.00;65.70
60287;DHT22;46141;52.382;5.270;2023-05-21T04:35:26;21.00;65.80
60287;DHT22;46141;52.382;5.270;2023-05-21T04:37:52;21.00;65.80
60287;DHT22;46141;52.382;5.270;2023-05-21T04:40:19;21.00;65.80
60287;DHT22;46141;52.382;5.270;2023-05-21T04:42:49;21.00;65.80
60287;DHT22;46141;52.382;5.270;2023-05-21T04:45:18;21.00;65.80
60287;DHT22;46141;52.382;5.270;2023-05-21T04:47:43;21.00;65.80
60287;DHT22;46141;52.382;5.270;2023-05-21T04:50:09;21.00;65.80
60287;DHT22;46141;52.382;5.270;2023-05-21T04:52:35;21.00;65.90
60287;DHT22;46141;52.382;5.270;2023-05-21T04:55:01;21.00;65.80
60287;DHT22;46141;52.382;5.270;2023-05-21T04:57:27;20.90;65.80
60287;DHT22;46141;52.382;5.270;2023-05-21T04:59:54;21.00;65.80
60287;DHT22;46141;52.382;5.270;2023-05-21T05:02:20;21.00;65.80
60287;DHT22;46141;52.382;5.270;2023-05-21T05:04:46;20.90;65.80
60287;DHT22;46141;52.382;5.270;2023-05-21T05:07:11;20.90;65.90
60287;DHT22;46141;52.382;5.270;2023-05-21T05:09:37;20.90;65.90
60287;DHT22;46141;52.382;5.270;2023-05-21T05:12:03;20.90;65.90
60287;DHT22;46141;52.382;5.270;2023-05-21T05:14:29;20.90;66.00
60287;DHT22;46141;52.382;5.270;2023-05-21T05:16:55;20.90;66.00
60287;DHT22;46141;52.382;5.270;2023-05-21T05:19:25;20.90;66.00
60287;DHT22;46141;52.382;5.270;2023-05-21T05:21:50;20.90;66.00
60287;DHT22;46141;52.382;5.270;2023-05-21T05:24:16;20.90;66.00
60287;DHT22;46141;52.382;5.270;2023-05-21T05:26:42;20.90;66.10
60287;DHT22;46141;52.382;5.270;2023-05-21T05:29:07;20.90;66.10
60287;DHT22;46141;52.382;5.270;2023-05-21T05:31:33;20.90;66.10
60287;DHT22;46141;52.382;5.270;2023-05-21T05:33:59;20.90;66.60
60287;DHT22;46141;52.382;5.270;2023-05-21T05:36:24;20.90;66.00
60287;DHT22;46141;52.382;5.270;2023-05-21T05:38:50;20.90;66.10
60287;DHT22;46141;52.382;5.270;2023-05-21T05:41:16;20.90;66.10
60287;DHT22;46141;52.382;5.270;2023-05-21T05:43:42;20.80;66.10
60287;DHT22;46141;52.382;5.270;2023-05-21T05:46:08;20.80;66.10
60287;DHT22;46141;52.382;5.270;2023-05-21T05:48:33;20.90;66.10
60287;DHT22;46141;52.382;5.270;2023-05-21T05:50:59;20.80;66.60
60287;DHT22;46141;52.382;5.270;2023-05-21T05:53:25;20.80;66.00
60287;DHT22;46141;52.382;5.270;2023-05-21T05:55:51;20.90;66.00
60287;DHT22;46141;52.382;5.270;2023-05-21T05:58:17;20.80;66.10
60287;DHT22;46141;52.382;5.270;2023-05-21T06:00:42;20.80;66.10
60287;DHT22;46141;52.382;5.270;2023-05-21T06:03:08;20.80;66.10
60287;DHT22;46141;52.382;5.270;2023-05-21T06:05:34;20.80;66.20
60287;DHT22;46141;52.382;5.270;2023-05-21T06:07:59;20.80;66.10
60287;DHT22;46141;52.382;5.270;2023-05-21T06:10:25;20.80;66.10
60287;DHT22;46141;52.382;5.270;2023-05-21T06:12:51;20.80;66.10
60287;DHT22;46141;52.382;5.270;2023-05-21T06:15:17;20.80;66.10
60287;DHT22;46141;52.382;5.270;2023-05-21T06:17:44;20.80;66.20
60287;DHT22;46141;52.382;5.270;2023-05-21T06:20:10;20.80;66.10
60287;DHT22;46141;52.382;5.270;2023-05-21T06:22:36;20.80;66.20
60287;DHT22;46141;52.382;5.270;2023-05-21T06:25:02;20.80;66.10
60287;DHT22;46141;52.382;5.270;2023-05-21T06:27:28;20.80;66.20
60287;DHT22;46141;52.382;5.270;2023-05-21T06:29:53;20.80;66.10
60287;DHT22;46141;52.382;5.270;2023-05-21T06:32:19;20.80;66.10
60287;DHT22;46141;52.382;5.270;2023-05-21T06:34:48;20.80;66.10
60287;DHT22;46141;52.382;5.270;2023-05-21T06:37:18;20.80;66.10
60287;DHT22;46141;52.382;5.270;2023-05-21T06:39:47;20.90;66.10
60287;DHT22;46141;52.382;5.270;2023-05-21T06:42:13;20.90;66.10
60287;DHT22;46141;52.382;5.270;2023-05-21T06:44:39;20.90;65.90
60287;DHT22;46141;52.382;5.270;2023-05-21T06:47:04;20.90;65.90
60287;DHT22;46141;52.382;5.270;2023-05-21T06:49:31;20.90;65.90
60287;DHT22;46141;52.382;5.270;2023-05-21T06:51:57;21.00;65.90
60287;DHT22;46141;52.382;5.270;2023-05-21T06:54:22;21.00;65.90
60287;DHT22;46141;52.382;5.270;2023-05-21T06:56:48;21.00;65.90
60287;DHT22;46141;52.382;5.270;2023-05-21T06:59:14;21.00;65.80
60287;DHT22;46141;52.382;5.270;2023-05-21T07:01:39;21.00;65.80
60287;DHT22;46141;52.382;5.270;2023-05-21T07:04:07;21.00;65.80
60287;DHT22;46141;52.382;5.270;2023-05-21T07:06:33;21.00;65.90
60287;DHT22;46141;52.382;5.270;2023-05-21T07:08:59;21.00;65.80
60287;DHT22;46141;52.382;5.270;2023-05-21T07:11:25;21.10;65.80
60287;DHT22;46141;52.382;5.270;2023-05-21T07:13:53;21.10;65.70
60287;DHT22;46141;52.382;5.270;2023-05-21T07:16:21;21.10;65.70
60287;DHT22;46141;52.382;5.270;2023-05-21T07:18:46;21.10;65.60
60287;DHT22;46141;52.382;5.270;2023-05-21T07:21:12;21.10;65.60
60287;DHT22;46141;52.382;5.270;2023-05-21T07:23:37;21.10;65.50
60287;DHT22;46141;52.382;5.270;2023-05-21T07:26:03;21.10;65.50
60287;DHT22;46141;52.382;5.270;2023-05-21T07:28:29;21.20;65.40
60287;DHT22;46141;52.382;5.270;2023-05-21T07:30:55;21.20;65.30
60287;DHT22;46141;52.382;5.270;2023-05-21T07:33:21;21.20;65.50
60287;DHT22;46141;52.382;5.270;2023-05-21T07:35:47;21.20;65.40
60287;DHT22;46141;52.382;5.270;2023-05-21T07:38:13;21.30;65.40
60287;DHT22;46141;52.382;5.270;2023-05-21T07:40:38;21.20;65.50
60287;DHT22;46141;52.382;5.270;2023-05-21T07:43:04;21.20;66.50
60287;DHT22;46141;52.382;5.270;2023-05-21T07:45:30;21.20;66.60
60287;DHT22;46141;52.382;5.270;2023-05-21T07:47:55;21.20;66.50
60287;DHT22;46141;52.382;5.270;2023-05-21T07:50:21;21.20;66.70
60287;DHT22;46141;52.382;5.270;2023-05-21T07:52:47;21.20;66.80
60287;DHT22;46141;52.382;5.270;2023-05-21T07:55:12;21.20;66.90
60287;DHT22;46141;52.382;5.270;2023-05-21T07:57:38;21.20;66.80
60287;DHT22;46141;52.382;5.270;2023-05-21T08:00:04;21.30;66.80
60287;DHT22;46141;52.382;5.270;2023-05-21T08:02:33;21.30;66.80
60287;DHT22;46141;52.382;5.270;2023-05-21T08:04:59;21.30;66.90
60287;DHT22;46141;52.382;5.270;2023-05-21T08:07:26;21.30;67.00
60287;DHT22;46141;52.382;5.270;2023-05-21T08:09:52;21.30;67.00
60287;DHT22;46141;52.382;5.270;2023-05-21T08:12:20;21.30;67.10
60287;DHT22;46141;52.382;5.270;2023-05-21T08:14:46;21.40;67.20
60287;DHT22;46141;52.382;5.270;2023-05-21T08:17:12;21.30;67.40
60287;DHT22;46141;52.382;5.270;2023-05-21T08:19:37;21.30;67.70
60287;DHT22;46141;52.382;5.270;2023-05-21T08:22:03;21.30;67.60
60287;DHT22;46141;52.382;5.270;2023-05-21T08:24:31;21.30;67.70
60287;DHT22;46141;52.382;5.270;2023-05-21T08:26:57;21.30;67.80
60287;DHT22;46141;52.382;5.270;2023-05-21T08:29:22;21.40;67.70
60287;DHT22;46141;52.382;5.270;2023-05-21T08:31:48;21.30;67.90
60287;DHT22;46141;52.382;5.270;2023-05-21T08:34:14;21.30;68.10
60287;DHT22;46141;52.382;5.270;2023-05-21T08:36:39;21.30;68.20
60287;DHT22;46141;52.382;5.270;2023-05-21T08:39:07;21.30;68.20
60287;DHT22;46141;52.382;5.270;2023-05-21T08:41:34;21.40;68.20
60287;DHT22;46141;52.382;5.270;2023-05-21T08:44:01;21.50;68.20
60287;DHT22;46141;52.382;5.270;2023-05-21T08:46:32;21.40;67.90
60287;DHT22;46141;52.382;5.270;2023-05-21T08:49:02;21.50;68.00
60287;DHT22;46141;52.382;5.270;2023-05-21T08:51:28;21.50;68.00
60287;DHT22;46141;52.382;5.270;2023-05-21T08:53:56;21.50;67.80
60287;DHT22;46141;52.382;5.270;2023-05-21T08:56:25;21.60;67.90
60287;DHT22;46141;52.382;5.270;2023-05-21T08:58:51;21.60;67.90
60287;DHT22;46141;52.382;5.270;2023-05-21T09:01:18;21.60;67.80
60287;DHT22;46141;52.382;5.270;2023-05-21T09:03:46;21.70;67.70
60287;DHT22;46141;52.382;5.270;2023-05-21T09:06:12;21.70;67.70
60287;DHT22;46141;52.382;5.270;2023-05-21T09:08:43;21.70;67.90
60287;DHT22;46141;52.382;5.270;2023-05-21T09:11:13;21.70;67.80
60287;DHT22;46141;52.382;5.270;2023-05-21T09:13:40;21.70;67.60
60287;DHT22;46141;52.382;5.270;2023-05-21T09:16:09;21.80;67.40
60287;DHT22;46141;52.382;5.270;2023-05-21T09:18:35;21.90;67.40
60287;DHT22;46141;52.382;5.270;2023-05-21T09:21:27;22.00;67.40
60287;DHT22;46141;52.382;5.270;2023-05-21T09:23:54;22.00;67.40
60287;DHT22;46141;52.382;5.270;2023-05-21T09:26:21;21.90;67.10
60287;DHT22;46141;52.382;5.270;2023-05-21T09:28:47;21.90;67.30
60287;DHT22;46141;52.382;5.270;2023-05-21T09:31:13;21.90;67.20
60287;DHT22;46141;52.382;5.270;2023-05-21T09:33:45;22.00;67.10
60287;DHT22;46141;52.382;5.270;2023-05-21T09:36:16;21.90;67.20
60287;DHT22;46141;52.382;5.270;2023-05-21T09:38:44;22.00;67.40
60287;DHT22;46141;52.382;5.270;2023-05-21T09:41:09;22.00;67.30
60287;DHT22;46141;52.382;5.270;2023-05-21T09:43:35;22.00;67.40
60287;DHT22;46141;52.382;5.270;2023-05-21T09:46:01;22.00;67.50
60287;DHT22;46141;52.382;5.270;2023-05-21T09:51:14;22.10;67.30
60287;DHT22;46141;52.382;5.270;2023-05-21T09:53:51;22.20;67.30
60287;DHT22;46141;52.382;5.270;2023-05-21T09:56:21;22.30;67.60
60287;DHT22;46141;52.382;5.270;2023-05-21T09:58:51;22.30;67.10
60287;DHT22;46141;52.382;5.270;2023-05-21T10:01:19;22.40;67.00
60287;DHT22;46141;52.382;5.270;2023-05-21T10:03:56;22.40;66.90
60287;DHT22;46141;52.382;5.270;2023-05-21T10:06:29;22.40;67.00
60287;DHT22;46141;52.382;5.270;2023-05-21T10:08:59;22.40;67.10
60287;DHT22;46141;52.382;5.270;2023-05-21T10:11:30;22.50;67.20
60287;DHT22;46141;52.382;5.270;2023-05-21T10:14:15;22.50;66.90
60287;DHT22;46141;52.382;5.270;2023-05-21T10:16:41;22.60;66.80
60287;DHT22;46141;52.382;5.270;2023-05-21T10:19:08;22.60;66.60
60287;DHT22;46141;52.382;5.270;2023-05-21T10:21:37;22.60;66.60
60287;DHT22;46141;52.382;5.270;2023-05-21T10:24:07;22.70;66.60
60287;DHT22;46141;52.382;5.270;2023-05-21T10:26:33;22.70;66.40
60287;DHT22;46141;52.382;5.270;2023-05-21T10:29:01;22.70;66.50
60287;DHT22;46141;52.382;5.270;2023-05-21T10:31:28;22.70;66.70
60287;DHT22;46141;52.382;5.270;2023-05-21T10:33:54;22.80;67.00
60287;DHT22;46141;52.382;5.270;2023-05-21T10:36:22;22.80;66.40
60287;DHT22;46141;52.382;5.270;2023-05-21T10:38:48;22.80;67.10
60287;DHT22;46141;52.382;5.270;2023-05-21T10:41:16;22.80;67.70
60287;DHT22;46141;52.382;5.270;2023-05-21T10:49:29;23.00;67.00
60287;DHT22;46141;52.382;5.270;2023-05-21T10:58:10;23.10;66.80
60287;DHT22;46141;52.382;5.270;2023-05-21T11:00:41;23.10;66.90
60287;DHT22;46141;52.382;5.270;2023-05-21T11:03:11;23.10;66.40
60287;DHT22;46141;52.382;5.270;2023-05-21T11:08:26;23.20;66.80
60287;DHT22;46141;52.382;5.270;2023-05-21T11:10:54;23.20;66.60
60287;DHT22;46141;52.382;5.270;2023-05-21T11:13:22;23.20;66.40
60287;DHT22;46141;52.382;5.270;2023-05-21T11:21:13;23.40;65.90
60287;DHT22;46141;52.382;5.270;2023-05-21T11:23:53;23.40;65.80
60287;DHT22;46141;52.382;5.270;2023-05-21T11:26:22;23.40;65.70
60287;DHT22;46141;52.382;5.270;2023-05-21T11:31:30;23.40;65.40
60287;DHT22;46141;52.382;5.270;2023-05-21T11:34:24;23.40;65.30
60287;DHT22;46141;52.382;5.270;2023-05-21T11:39:40;23.50;65.20
60287;DHT22;46141;52.382;5.270;2023-05-21T11:42:06;23.50;65.10
60287;DHT22;46141;52.382;5.270;2023-05-21T11:44:43;23.50;65.00
60287;DHT22;46141;52.382;5.270;2023-05-21T11:47:11;23.50;65.00
60287;DHT22;46141;52.382;5.270;2023-05-21T11:49:37;23.50;64.90
60287;DHT22;46141;52.382;5.270;2023-05-21T11:52:05;23.60;64.90
60287;DHT22;46141;52.382;5.270;2023-05-21T11:54:33;23.60;64.80
60287;DHT22;46141;52.382;5.270;2023-05-21T11:57:06;23.60;64.50
60287;DHT22;46141;52.382;5.270;2023-05-21T11:59:32;23.40;64.70
60287;DHT22;46141;52.382;5.270;2023-05-21T12:01:59;23.30;65.00
60287;DHT22;46141;52.382;5.270;2023-05-21T12:04:32;23.30;65.20
60287;DHT22;46141;52.382;5.270;2023-05-21T12:07:06;23.40;65.00
60287;DHT22;46141;52.382;5.270;2023-05-21T12:09:39;23.50;64.80
60287;DHT22;46141;52.382;5.270;2023-05-21T12:12:06;23.60;64.70
60287;DHT22;46141;52.382;5.270;2023-05-21T12:14:33;23.70;64.60
60287;DHT22;46141;52.382;5.270;2023-05-21T12:16:59;23.80;64.60
60287;DHT22;46141;52.382;5.270;2023-05-21T12:19:25;23.80;64.40
60287;DHT22;46141;52.382;5.270;2023-05-21T12:21:50;23.80;64.30
60287;DHT22;46141;52.382;5.270;2023-05-21T12:24:16;24.00;64.30
60287;DHT22;46141;52.382;5.270;2023-05-21T12:26:42;23.90;64.30
60287;DHT22;46141;52.382;5.270;2023-05-21T12:29:10;23.90;64.90
60287;DHT22;46141;52.382;5.270;2023-05-21T12:31:47;24.00;64.30
60287;DHT22;46141;52.382;5.270;2023-05-21T12:34:13;24.00;64.10
60287;DHT22;46141;52.382;5.270;2023-05-21T12:36:42;24.00;64.10
60287;DHT22;46141;52.382;5.270;2023-05-21T12:39:10;24.10;64.30
60287;DHT22;46141;52.382;5.270;2023-05-21T12:41:36;24.10;64.10
60287;DHT22;46141;52.382;5.270;2023-05-21T12:44:02;24.10;64.10
60287;DHT22;46141;52.382;5.270;2023-05-21T12:46:30;24.10;64.00
60287;DHT22;46141;52.382;5.270;2023-05-21T12:48:55;24.10;64.10
60287;DHT22;46141;52.382;5.270;2023-05-21T12:51:21;24.10;64.00
60287;DHT22;46141;52.382;5.270;2023-05-21T12:53:47;24.10;64.10
60287;DHT22;46141;52.382;5.270;2023-05-21T12:56:14;24.10;64.10
60287;DHT22;46141;52.382;5.270;2023-05-21T12:58:41;24.20;64.00
60287;DHT22;46141;52.382;5.270;2023-05-21T13:01:07;24.20;63.90
60287;DHT22;46141;52.382;5.270;2023-05-21T13:03:34;24.20;64.00
60287;DHT22;46141;52.382;5.270;2023-05-21T13:06:00;24.20;64.00
60287;DHT22;46141;52.382;5.270;2023-05-21T13:08:26;24.20;64.00
60287;DHT22;46141;52.382;5.270;2023-05-21T13:10:52;24.20;63.90
60287;DHT22;46141;52.382;5.270;2023-05-21T13:13:18;24.30;63.80
60287;DHT22;46141;52.382;5.270;2023-05-21T13:15:43;24.30;63.90
60287;DHT22;46141;52.382;5.270;2023-05-21T13:18:09;24.30;63.90
60287;DHT22;46141;52.382;5.270;2023-05-21T13:20:36;24.20;64.20
60287;DHT22;46141;52.382;5.270;2023-05-21T13:23:03;24.20;64.40
60287;DHT22;46141;52.382;5.270;2023-05-21T13:25:29;24.10;64.70
60287;DHT22;46141;52.382;5.270;2023-05-21T13:28:00;24.20;64.80
60287;DHT22;46141;52.382;5.270;2023-05-21T13:30:26;24.30;64.90
60287;DHT22;46141;52.382;5.270;2023-05-21T13:32:52;24.30;64.70
60287;DHT22;46141;52.382;5.270;2023-05-21T13:35:18;24.30;64.50
60287;DHT22;46141;52.382;5.270;2023-05-21T13:37:44;24.30;64.50
60287;DHT22;46141;52.382;5.270;2023-05-21T13:40:12;24.30;64.60
60287;DHT22;46141;52.382;5.270;2023-05-21T13:42:43;24.40;64.70
60287;DHT22;46141;52.382;5.270;2023-05-21T13:45:11;24.40;64.50
60287;DHT22;46141;52.382;5.270;2023-05-21T13:47:37;24.40;64.40
60287;DHT22;46141;52.382;5.270;2023-05-21T13:50:04;24.40;64.20
60287;DHT22;46141;52.382;5.270;2023-05-21T13:52:30;24.40;64.10
60287;DHT22;46141;52.382;5.270;2023-05-21T13:54:55;24.50;64.00
60287;DHT22;46141;52.382;5.270;2023-05-21T13:57:21;24.50;63.80
60287;DHT22;46141;52.382;5.270;2023-05-21T13:59:47;24.50;63.70
60287;DHT22;46141;52.382;5.270;2023-05-21T14:02:15;24.50;63.50
60287;DHT22;46141;52.382;5.270;2023-05-21T14:04:40;24.50;63.60
60287;DHT22;46141;52.382;5.270;2023-05-21T14:07:06;24.50;63.50
60287;DHT22;46141;52.382;5.270;2023-05-21T14:09:32;24.60;63.40
60287;DHT22;46141;52.382;5.270;2023-05-21T14:11:58;24.60;63.40
60287;DHT22;46141;52.382;5.270;2023-05-21T14:14:24;24.60;63.30
60287;DHT22;46141;52.382;5.270;2023-05-21T14:16:50;24.70;63.30
60287;DHT22;46141;52.382;5.270;2023-05-21T14:19:16;24.70;63.30
60287;DHT22;46141;52.382;5.270;2023-05-21T14:21:42;24.70;63.40
60287;DHT22;46141;52.382;5.270;2023-05-21T14:24:08;24.70;63.30
60287;DHT22;46141;52.382;5.270;2023-05-21T14:26:36;24.80;63.60
60287;DHT22;46141;52.382;5.270;2023-05-21T14:29:01;24.80;63.30
60287;DHT22;46141;52.382;5.270;2023-05-21T14:31:27;24.80;63.20
60287;DHT22;46141;52.382;5.270;2023-05-21T14:33:53;24.80;63.20
60287;DHT22;46141;52.382;5.270;2023-05-21T14:36:18;24.80;63.10
60287;DHT22;46141;52.382;5.270;2023-05-21T14:38:45;24.90;63.10
60287;DHT22;46141;52.382;5.270;2023-05-21T14:41:10;24.90;63.10
60287;DHT22;46141;52.382;5.270;2023-05-21T14:43:36;24.90;63.00
60287;DHT22;46141;52.382;5.270;2023-05-21T14:46:02;24.90;63.00
60287;DHT22;46141;52.382;5.270;2023-05-21T14:48:27;24.80;62.90
60287;DHT22;46141;52.382;5.270;2023-05-21T14:50:53;24.80;62.90
60287;DHT22;46141;52.382;5.270;2023-05-21T14:53:19;24.80;62.80
60287;DHT22;46141;52.382;5.270;2023-05-21T14:55:46;24.90;62.80
60287;DHT22;46141;52.382;5.270;2023-05-21T14:58:12;24.90;62.70
60287;DHT22;46141;52.382;5.270;2023-05-21T15:00:38;25.00;62.70
60287;DHT22;46141;52.382;5.270;2023-05-21T15:03:05;25.00;62.60
60287;DHT22;46141;52.382;5.270;2023-05-21T15:05:31;25.00;62.60
60287;DHT22;46141;52.382;5.270;2023-05-21T15:07:58;24.90;62.40
60287;DHT22;46141;52.382;5.270;2023-05-21T15:10:25;25.00;62.50
60287;DHT22;46141;52.382;5.270;2023-05-21T15:12:52;24.90;62.50
60287;DHT22;46141;52.382;5.270;2023-05-21T15:15:18;24.90;62.40
60287;DHT22;46141;52.382;5.270;2023-05-21T15:17:47;25.00;62.50
60287;DHT22;46141;52.382;5.270;2023-05-21T15:20:14;25.00;62.50
60287;DHT22;46141;52.382;5.270;2023-05-21T15:22:39;25.00;62.40
60287;DHT22;46141;52.382;5.270;2023-05-21T15:25:06;25.00;62.40
60287;DHT22;46141;52.382;5.270;2023-05-21T15:27:32;25.00;62.50
60287;DHT22;46141;52.382;5.270;2023-05-21T15:29:57;25.10;62.50
60287;DHT22;46141;52.382;5.270;2023-05-21T15:32:23;25.10;62.60
60287;DHT22;46141;52.382;5.270;2023-05-21T15:34:49;25.10;62.60
60287;DHT22;46141;52.382;5.270;2023-05-21T15:37:16;25.20;62.60
60287;DHT22;46141;52.382;5.270;2023-05-21T15:39:42;25.10;62.40
60287;DHT22;46141;52.382;5.270;2023-05-21T15:42:08;25.20;62.50
60287;DHT22;46141;52.382;5.270;2023-05-21T15:44:34;25.20;62.60
60287;DHT22;46141;52.382;5.270;2023-05-21T15:47:00;25.20;62.50
60287;DHT22;46141;52.382;5.270;2023-05-21T15:49:25;25.20;62.50
60287;DHT22;46141;52.382;5.270;2023-05-21T15:51:51;25.20;62.50
60287;DHT22;46141;52.382;5.270;2023-05-21T15:54:17;25.30;62.60
60287;DHT22;46141;52.382;5.270;2023-05-21T15:56:43;25.30;62.50
60287;DHT22;46141;52.382;5.270;2023-05-21T15:59:15;25.30;63.60